Time;durP1;ratioP1;P1;durP2;ratioP2;P2;SDS_P1;SDS_P2;PMS_P1;PMS_P2;Temp;Humidity;BMP_temperature;BMP_pressure;BME280_temperature;BME280_humidity;BME280_pressure;Samples;Min_cycle;Max_cycle;Signal;HPM_P1;HPM_P2
2022/08/24 00:02:24;;;;;;;0.90;0.90;;;21.00;69.20;;;;;;6274756;22;20015;-74
2022/08/24 00:04:53;;;;;;;0.90;0.88;;;21.00;69.20;;;;;;6274614;22;20000;-73
2022/08/24 00:07:20;;;;;;;0.73;0.73;;;20.90;69.30;;;;;;6274729;22;20428;-73
2022/08/24 00:09:47;;;;;;;1.65;0.80;;;20.90;69.40;;;;;;6274932;22;20000;-74
2022/08/24 00:12:13;;;;;;;0.82;0.82;;;20.90;69.40;;;;;;6247268;22;20106;-73
2022/08/24 00:14:40;;;;;;;1.10;1.00;;;20.80;69.50;;;;;;6247326;22;20404;-74
2022/08/24 00:17:06;;;;;;;0.80;0.80;;;20.80;69.60;;;;;;6274494;22;20039;-73
2022/08/24 00:19:33;;;;;;;0.70;0.70;;;20.80;69.70;;;;;;6274763;22;19996;-73
2022/08/24 00:21:59;;;;;;;0.80;0.80;;;20.80;69.70;;;;;;6275311;22;20006;-73
2022/08/24 00:24:25;;;;;;;0.85;0.70;;;20.80;69.80;;;;;;6274482;22;20063;-74
2022/08/24 00:26:52;;;;;;;0.60;0.60;;;20.70;69.80;;;;;;6275415;22;20000;-73
2022/08/24 00:29:21;;;;;;;0.77;0.77;;;20.70;69.90;;;;;;6248063;22;20035;-73
2022/08/24 00:31:47;;;;;;;0.70;0.70;;;20.70;70.10;;;;;;6274746;22;20008;-73
2022/08/24 00:34:13;;;;;;;0.82;0.82;;;20.70;70.20;;;;;;6274684;22;20007;-73
2022/08/24 00:36:40;;;;;;;0.70;0.60;;;20.60;70.20;;;;;;6274247;22;20420;-73
2022/08/24 00:39:07;;;;;;;0.80;0.80;;;20.60;70.30;;;;;;6247199;22;19995;-74
2022/08/24 00:41:34;;;;;;;0.80;0.80;;;20.60;70.50;;;;;;6274704;22;20008;-73
2022/08/24 00:44:03;;;;;;;1.40;1.08;;;20.60;70.50;;;;;;6274114;22;20073;-74
2022/08/24 00:46:41;;;;;;;0.75;0.75;;;20.60;70.70;;;;;;6274750;22;19999;-73
2022/08/24 00:49:20;;;;;;;0.63;0.60;;;20.50;70.70;;;;;;6248648;22;20008;-73
2022/08/24 00:51:56;;;;;;;0.70;0.70;;;20.50;70.80;;;;;;6275104;22;20481;-74
2022/08/24 00:54:25;;;;;;;0.70;0.70;;;20.50;70.80;;;;;;6244775;22;20014;-73
2022/08/24 00:56:57;;;;;;;0.82;0.70;;;20.40;70.80;;;;;;6274333;22;20008;-73
2022/08/24 00:59:29;;;;;;;1.35;0.85;;;20.40;70.90;;;;;;6247113;22;20120;-73
2022/08/24 01:01:57;;;;;;;0.80;0.80;;;20.30;70.90;;;;;;6274330;22;19996;-74
2022/08/24 01:04:30;;;;;;;0.70;0.70;;;20.30;71.00;;;;;;6274517;22;20027;-73
2022/08/24 01:06:56;;;;;;;0.70;0.70;;;20.30;71.10;;;;;;6274872;22;20064;-73
2022/08/24 01:09:22;;;;;;;0.98;0.70;;;20.30;71.20;;;;;;6248030;22;20008;-74
2022/08/24 01:11:48;;;;;;;0.60;0.60;;;20.30;71.30;;;;;;6247589;22;20500;-73
2022/08/24 01:14:17;;;;;;;0.60;0.60;;;20.20;71.30;;;;;;6274348;22;20014;-73
2022/08/24 01:19:38;;;;;;;0.70;0.70;;;20.20;71.40;;;;;;6274446;22;20015;-73
2022/08/24 01:22:31;;;;;;;0.80;0.80;;;20.10;71.50;;;;;;6247887;22;20050;-73
2022/08/24 01:24:58;;;;;;;0.60;0.60;;;20.10;71.60;;;;;;6247005;22;20057;-73
2022/08/24 01:27:24;;;;;;;0.70;0.70;;;20.10;71.60;;;;;;6274625;22;20031;-73
2022/08/24 01:29:51;;;;;;;0.70;0.70;;;20.10;71.70;;;;;;6274302;22;20065;-74
2022/08/24 01:32:22;;;;;;;2.08;1.08;;;20.10;71.80;;;;;;6247383;22;20079;-73
2022/08/24 01:34:48;;;;;;;1.02;0.80;;;20.00;71.80;;;;;;6274527;22;19999;-73
2022/08/24 01:37:14;;;;;;;0.70;0.70;;;20.00;71.90;;;;;;6274183;22;20420;-74
2022/08/24 01:39:44;;;;;;;0.75;0.75;;;20.00;72.00;;;;;;6274512;22;20308;-73
2022/08/24 01:42:12;;;;;;;0.90;0.90;;;20.00;72.10;;;;;;6246828;22;20006;-73
2022/08/24 01:44:39;;;;;;;1.20;0.93;;;19.90;72.00;;;;;;6221833;22;20059;-74
2022/08/24 01:47:08;;;;;;;0.70;0.70;;;19.90;72.20;;;;;;6274838;22;20006;-73
2022/08/24 01:49:36;;;;;;;1.27;0.70;;;19.90;72.20;;;;;;6248488;22;20010;-74
2022/08/24 01:52:05;;;;;;;0.80;0.80;;;19.90;72.30;;;;;;6275235;22;20014;-74
2022/08/24 01:54:31;;;;;;;0.82;0.80;;;19.90;72.40;;;;;;6275557;22;20003;-74
2022/08/24 01:56:58;;;;;;;0.80;0.80;;;19.90;72.40;;;;;;6247983;22;20007;-74
2022/08/24 01:59:24;;;;;;;0.75;0.75;;;19.90;72.50;;;;;;6276019;22;19999;-73
2022/08/24 02:01:54;;;;;;;1.35;0.77;;;19.90;72.60;;;;;;6248983;22;20054;-73
2022/08/24 02:04:21;;;;;;;0.77;0.77;;;19.80;72.60;;;;;;6275058;22;20423;-74
2022/08/24 02:06:47;;;;;;;0.80;0.80;;;19.80;72.70;;;;;;6274857;22;20420;-73
2022/08/24 02:09:12;;;;;;;1.00;0.98;;;19.80;72.80;;;;;;6223475;22;20054;-73
2022/08/24 02:11:39;;;;;;;0.93;0.80;;;19.70;72.80;;;;;;6248084;22;20428;-73
2022/08/24 02:14:05;;;;;;;0.70;0.70;;;19.70;72.90;;;;;;6275203;22;20015;-73
2022/08/24 02:16:31;;;;;;;0.90;0.90;;;19.80;72.90;;;;;;6247919;22;20004;-73
2022/08/24 02:18:57;;;;;;;0.75;0.75;;;19.70;73.00;;;;;;6275133;22;20103;-73
2022/08/24 02:21:24;;;;;;;0.80;0.80;;;19.70;73.10;;;;;;6247846;22;20000;-73
2022/08/24 02:23:50;;;;;;;0.70;0.70;;;19.70;73.10;;;;;;6248196;22;20325;-74
2022/08/24 02:26:17;;;;;;;1.40;0.90;;;19.70;73.20;;;;;;6275576;22;19996;-73
2022/08/24 02:28:42;;;;;;;0.63;0.63;;;19.60;73.20;;;;;;6248201;22;20016;-73
2022/08/24 02:31:10;;;;;;;0.80;0.80;;;19.60;73.30;;;;;;6248053;22;20101;-73
2022/08/24 02:33:37;;;;;;;0.85;0.70;;;19.60;73.40;;;;;;6248311;22;20436;-73
2022/08/24 02:36:05;;;;;;;1.45;0.90;;;19.60;73.50;;;;;;6275585;22;20053;-74
2022/08/24 02:38:31;;;;;;;0.68;0.68;;;19.60;73.60;;;;;;6275215;22;20436;-73
2022/08/24 02:40:57;;;;;;;0.98;0.88;;;19.60;73.60;;;;;;6248846;22;20008;-73
2022/08/24 02:43:23;;;;;;;1.00;0.90;;;19.50;73.60;;;;;;6275687;22;20064;-74
2022/08/24 02:45:49;;;;;;;1.05;0.80;;;19.50;73.70;;;;;;6274995;22;20000;-74
2022/08/24 02:48:15;;;;;;;0.65;0.65;;;19.50;73.80;;;;;;6274838;22;20451;-74
2022/08/24 02:50:43;;;;;;;0.80;0.70;;;19.50;73.90;;;;;;6275615;22;20003;-74
2022/08/24 02:53:12;;;;;;;0.80;0.80;;;19.50;73.90;;;;;;6275009;22;20031;-74
2022/08/24 02:55:40;;;;;;;0.90;0.90;;;19.50;74.00;;;;;;6275185;22;20008;-73
2022/08/24 02:58:07;;;;;;;1.02;0.70;;;19.50;74.00;;;;;;6274315;22;20065;-73
2022/08/24 03:00:35;;;;;;;0.70;0.70;;;19.40;74.00;;;;;;6275238;22;20057;-73
2022/08/24 03:03:01;;;;;;;0.60;0.60;;;19.30;74.00;;;;;;6275321;22;20860;-73
2022/08/24 03:05:28;;;;;;;0.85;0.85;;;19.40;74.10;;;;;;6275321;22;20028;-73
2022/08/24 03:07:54;;;;;;;0.80;0.80;;;19.40;74.80;;;;;;6222899;22;20008;-73
2022/08/24 03:10:20;;;;;;;1.10;0.88;;;19.40;74.20;;;;;;6222694;22;20034;-73
2022/08/24 03:12:47;;;;;;;1.40;0.80;;;19.30;74.30;;;;;;6275202;22;19999;-73
2022/08/24 03:15:13;;;;;;;0.80;0.80;;;19.30;74.30;;;;;;6248526;22;20011;-73
2022/08/24 03:17:39;;;;;;;1.10;1.00;;;19.30;74.40;;;;;;6274849;22;20008;-73
2022/08/24 03:20:09;;;;;;;1.00;0.80;;;19.30;74.50;;;;;;6262130;22;20004;-74
2022/08/24 03:22:36;;;;;;;0.93;0.77;;;19.30;74.50;;;;;;6275295;22;20045;-74
2022/08/24 03:25:02;;;;;;;0.90;0.90;;;19.20;74.50;;;;;;6248025;22;20003;-73
2022/08/24 03:27:28;;;;;;;0.90;0.90;;;19.30;74.60;;;;;;6274759;22;20489;-73
2022/08/24 03:29:54;;;;;;;1.10;1.00;;;19.30;74.60;;;;;;6275113;22;19999;-73
2022/08/24 03:32:20;;;;;;;0.95;0.95;;;19.30;74.70;;;;;;6247914;22;20012;-73
2022/08/24 03:34:46;;;;;;;1.17;0.82;;;19.20;74.70;;;;;;6274806;22;20000;-73
2022/08/24 03:37:11;;;;;;;1.33;1.00;;;19.20;74.80;;;;;;6246712;22;20015;-74
2022/08/24 03:39:38;;;;;;;1.50;0.90;;;19.20;74.90;;;;;;6274904;22;20004;-73
2022/08/24 03:42:04;;;;;;;0.98;0.82;;;19.20;75.00;;;;;;6274985;22;20371;-73
2022/08/24 03:44:30;;;;;;;0.70;0.70;;;19.10;74.90;;;;;;6275090;22;20050;-73
2022/08/24 03:46:56;;;;;;;1.02;0.90;;;19.10;75.00;;;;;;6275186;22;20000;-73
2022/08/24 03:49:21;;;;;;;0.80;0.80;;;19.10;75.00;;;;;;6271548;22;20004;-73
2022/08/24 03:51:48;;;;;;;1.30;1.00;;;19.10;75.10;;;;;;6274577;22;20006;-74
2022/08/24 03:54:15;;;;;;;0.70;0.70;;;19.00;75.10;;;;;;6274635;22;20069;-73
2022/08/24 03:56:41;;;;;;;0.93;0.80;;;19.00;75.20;;;;;;6275346;22;19999;-73
2022/08/24 03:59:09;;;;;;;0.90;0.80;;;19.10;75.20;;;;;;6274751;22;20086;-73
2022/08/24 04:01:37;;;;;;;0.80;0.80;;;19.10;75.30;;;;;;6275551;22;20004;-73
2022/08/24 04:04:03;;;;;;;0.70;0.70;;;19.00;75.20;;;;;;6275365;22;20004;-73
2022/08/24 04:06:30;;;;;;;1.13;1.00;;;19.00;75.30;;;;;;6274855;22;20079;-74
2022/08/24 04:08:56;;;;;;;0.80;0.80;;;19.00;75.40;;;;;;6275206;22;20000;-73
2022/08/24 04:11:28;;;;;;;0.85;0.85;;;18.90;75.40;;;;;;6274239;22;20015;-73
2022/08/24 04:13:56;;;;;;;0.70;0.70;;;18.90;75.50;;;;;;6275719;22;20011;-73
2022/08/24 04:16:22;;;;;;;1.42;0.93;;;18.90;75.50;;;;;;6275428;22;19999;-74
2022/08/24 04:18:48;;;;;;;0.77;0.77;;;18.90;75.50;;;;;;6247409;22;20081;-74
2022/08/24 04:21:25;;;;;;;0.98;0.90;;;18.90;75.60;;;;;;6274963;22;20370;-73
2022/08/24 04:23:52;;;;;;;0.60;0.60;;;18.90;75.70;;;;;;6223213;22;20405;-74
2022/08/24 04:26:19;;;;;;;0.80;0.80;;;18.90;75.60;;;;;;6274979;22;20007;-73
2022/08/24 04:28:45;;;;;;;1.25;0.95;;;18.90;75.70;;;;;;6275640;22;20368;-73
2022/08/24 04:31:12;;;;;;;1.27;1.13;;;18.90;75.70;;;;;;6275760;22;20054;-73
2022/08/24 04:33:38;;;;;;;0.93;0.88;;;18.90;75.80;;;;;;6275051;22;20004;-73
2022/08/24 04:36:09;;;;;;;0.70;0.70;;;18.90;75.80;;;;;;6248035;22;20018;-73
2022/08/24 04:38:35;;;;;;;1.02;0.88;;;18.80;75.80;;;;;;6247960;22;20061;-73
2022/08/24 04:41:05;;;;;;;1.48;0.90;;;18.80;75.90;;;;;;6275006;22;20003;-73
2022/08/24 04:43:30;;;;;;;0.75;0.75;;;18.80;76.00;;;;;;6271824;22;20428;-73
2022/08/24 04:45:56;;;;;;;0.70;0.70;;;18.90;76.10;;;;;;6275579;22;20014;-74
2022/08/24 04:48:23;;;;;;;1.13;0.98;;;18.80;76.10;;;;;;6274740;22;20000;-73
2022/08/24 04:50:48;;;;;;;0.60;0.60;;;18.80;76.10;;;;;;6274919;22;19999;-73
2022/08/24 04:53:15;;;;;;;0.90;0.90;;;18.80;76.20;;;;;;6274824;22;20336;-73
2022/08/24 04:55:44;;;;;;;1.20;1.00;;;18.80;76.20;;;;;;6271775;22;20000;-73
2022/08/24 04:58:13;;;;;;;0.80;0.80;;;18.80;76.20;;;;;;6222672;22;20050;-73
2022/08/24 05:00:39;;;;;;;1.08;1.00;;;18.80;76.30;;;;;;6275202;22;20000;-73
2022/08/24 05:03:05;;;;;;;0.85;0.85;;;18.80;76.90;;;;;;6274934;22;20006;-73
2022/08/24 05:05:32;;;;;;;1.05;0.95;;;18.80;76.30;;;;;;6247843;22;20003;-73
2022/08/24 05:07:58;;;;;;;0.80;0.80;;;18.80;76.30;;;;;;6275255;22;20057;-73
2022/08/24 05:10:24;;;;;;;0.90;0.90;;;18.80;76.30;;;;;;6274422;22;20007;-73
2022/08/24 05:12:49;;;;;;;0.75;0.75;;;18.80;76.30;;;;;;6247116;22;20004;-73
2022/08/24 05:15:16;;;;;;;0.70;0.70;;;18.80;76.40;;;;;;6274983;22;20065;-73
2022/08/24 05:17:41;;;;;;;0.68;0.68;;;18.80;76.30;;;;;;6245744;22;20035;-73
2022/08/24 05:20:09;;;;;;;0.80;0.80;;;18.80;76.30;;;;;;6274840;22;20011;-73
2022/08/24 05:22:36;;;;;;;0.80;0.80;;;18.80;76.30;;;;;;6275648;22;19999;-74
2022/08/24 05:25:04;;;;;;;0.70;0.70;;;18.80;76.30;;;;;;6223646;22;20298;-73
2022/08/24 05:27:31;;;;;;;0.70;0.70;;;18.80;76.30;;;;;;6275744;22;20004;-73
2022/08/24 05:29:57;;;;;;;0.80;0.80;;;18.90;76.30;;;;;;6248491;22;20133;-73
2022/08/24 05:32:22;;;;;;;1.15;0.80;;;18.90;76.40;;;;;;6276692;22;20341;-73
2022/08/24 05:34:48;;;;;;;1.02;0.90;;;18.90;76.30;;;;;;6249291;22;20474;-73
2022/08/24 05:37:14;;;;;;;0.93;0.80;;;18.90;76.30;;;;;;6248924;22;20012;-73
2022/08/24 05:39:40;;;;;;;0.77;0.77;;;18.90;76.30;;;;;;6275682;22;20004;-73
2022/08/24 05:42:06;;;;;;;0.70;0.70;;;18.90;76.30;;;;;;6275590;22;20000;-73
2022/08/24 05:44:32;;;;;;;1.05;0.80;;;19.00;76.30;;;;;;6275733;22;20014;-73
2022/08/24 05:46:59;;;;;;;1.00;0.90;;;19.00;76.30;;;;;;6276186;22;20041;-73
2022/08/24 05:49:26;;;;;;;1.08;0.90;;;19.20;76.40;;;;;;6248680;22;20008;-73
2022/08/24 05:51:52;;;;;;;0.80;0.80;;;19.10;76.30;;;;;;6276038;22;20054;-73
2022/08/24 05:54:18;;;;;;;0.80;0.80;;;19.10;76.30;;;;;;6275794;22;20007;-73
2022/08/24 05:56:45;;;;;;;0.90;0.90;;;19.20;76.30;;;;;;6276126;22;20003;-73
2022/08/24 05:59:13;;;;;;;0.90;0.90;;;19.20;76.30;;;;;;6275439;22;20004;-73
2022/08/24 06:01:41;;;;;;;1.05;0.80;;;19.20;76.20;;;;;;6248256;22;20458;-73
2022/08/24 06:04:07;;;;;;;1.17;0.90;;;19.30;76.30;;;;;;6275516;22;20000;-73
2022/08/24 06:06:33;;;;;;;0.80;0.80;;;19.30;76.20;;;;;;6247238;22;20298;-73
2022/08/24 06:09:00;;;;;;;0.70;0.70;;;19.40;76.20;;;;;;6248418;22;20000;-73
2022/08/24 06:11:29;;;;;;;1.40;1.00;;;19.40;76.20;;;;;;6247957;22;20379;-73
2022/08/24 06:13:59;;;;;;;1.33;0.88;;;19.50;76.20;;;;;;6248087;22;20031;-73
2022/08/24 06:16:25;;;;;;;1.10;1.00;;;19.50;76.20;;;;;;6248244;22;20004;-73
2022/08/24 06:18:52;;;;;;;1.20;1.10;;;19.50;76.10;;;;;;6275309;22;20065;-73
2022/08/24 06:21:24;;;;;;;1.48;1.02;;;19.60;76.10;;;;;;6275390;22;20050;-73
2022/08/24 06:23:51;;;;;;;1.10;1.00;;;19.70;76.20;;;;;;6250015;22;20069;-73
2022/08/24 06:29:05;;;;;;;1.08;0.95;;;19.80;76.10;;;;;;6275232;22;20012;-73
2022/08/24 06:31:36;;;;;;;1.75;1.02;;;19.80;76.00;;;;;;6275387;22;20003;-73
2022/08/24 06:34:01;;;;;;;1.83;1.25;;;19.90;76.00;;;;;;6248835;22;20008;-73
2022/08/24 06:36:27;;;;;;;1.63;1.33;;;20.00;76.00;;;;;;6275457;22;20031;-74
2022/08/24 06:38:53;;;;;;;1.30;1.05;;;20.10;75.80;;;;;;6275200;22;20012;-74
2022/08/24 06:41:20;;;;;;;1.92;1.40;;;20.10;75.80;;;;;;6275685;22;20006;-74
2022/08/24 06:43:46;;;;;;;1.60;1.30;;;20.20;75.70;;;;;;6249618;22;20057;-74
2022/08/24 06:46:12;;;;;;;1.85;1.50;;;20.30;75.60;;;;;;6248536;22;20006;-74
2022/08/24 06:48:38;;;;;;;1.63;1.48;;;20.40;75.50;;;;;;6276337;22;20012;-74
2022/08/24 06:51:15;;;;;;;1.45;1.35;;;20.50;75.50;;;;;;6275537;22;20026;-74
2022/08/24 06:53:42;;;;;;;1.35;1.25;;;20.50;75.50;;;;;;6248589;22;19999;-74
2022/08/24 06:56:09;;;;;;;1.20;1.10;;;20.60;75.40;;;;;;6248538;22;20078;-74
2022/08/24 06:58:35;;;;;;;1.67;1.30;;;20.70;75.40;;;;;;6248275;22;20022;-74
2022/08/24 07:01:11;;;;;;;1.67;1.30;;;20.70;76.00;;;;;;6248304;22;20007;-74
2022/08/24 07:03:37;;;;;;;1.63;1.20;;;20.70;75.40;;;;;;6275672;22;20007;-74
2022/08/24 07:06:04;;;;;;;1.45;1.30;;;20.80;75.30;;;;;;6275171;22;20040;-74
2022/08/24 07:08:30;;;;;;;1.67;1.40;;;20.80;75.30;;;;;;6275313;22;20004;-74
2022/08/24 07:10:56;;;;;;;1.40;1.30;;;20.90;75.30;;;;;;6275394;22;20320;-74
2022/08/24 07:13:21;;;;;;;1.58;1.48;;;20.90;75.20;;;;;;6275762;22;20000;-74
2022/08/24 07:15:50;;;;;;;1.20;1.10;;;21.10;75.20;;;;;;6275347;22;20463;-74
2022/08/24 07:18:18;;;;;;;1.60;1.30;;;21.10;75.10;;;;;;6248061;22;20019;-74
2022/08/24 07:20:45;;;;;;;1.40;1.30;;;21.10;75.00;;;;;;6275959;22;19995;-74
2022/08/24 07:23:13;;;;;;;1.92;1.20;;;21.20;75.00;;;;;;6275688;22;20019;-74
2022/08/24 07:25:39;;;;;;;1.95;1.50;;;21.30;75.00;;;;;;6275166;22;20058;-74
2022/08/24 07:28:05;;;;;;;1.63;1.30;;;21.40;74.90;;;;;;6248170;22;20797;-74
2022/08/24 07:30:30;;;;;;;1.20;1.10;;;21.50;74.70;;;;;;6249042;22;20000;-74
2022/08/24 07:32:57;;;;;;;1.30;1.20;;;21.60;74.50;;;;;;6275264;22;20011;-74
2022/08/24 07:35:25;;;;;;;1.40;1.30;;;21.60;74.40;;;;;;6275897;22;20080;-74
2022/08/24 07:37:51;;;;;;;1.70;1.30;;;21.60;74.30;;;;;;6275752;22;20051;-74
2022/08/24 07:40:17;;;;;;;1.52;1.38;;;21.70;74.30;;;;;;6272237;22;19995;-74
2022/08/24 07:42:48;;;;;;;2.95;2.05;;;21.80;74.20;;;;;;6274988;22;20090;-74
2022/08/24 07:45:13;;;;;;;1.88;1.33;;;21.90;74.10;;;;;;6247555;22;20440;-74
2022/08/24 07:47:39;;;;;;;1.38;1.13;;;22.10;73.80;;;;;;6248052;22;20041;-74
2022/08/24 07:50:06;;;;;;;1.63;1.20;;;22.20;73.60;;;;;;6275667;22;20003;-74
2022/08/24 07:52:32;;;;;;;1.55;1.27;;;22.30;73.30;;;;;;6275498;22;20026;-74
2022/08/24 07:54:58;;;;;;;1.40;1.30;;;22.40;73.20;;;;;;6275148;22;20420;-74
2022/08/24 07:57:24;;;;;;;1.15;1.05;;;22.50;72.90;;;;;;6248600;22;20014;-74
2022/08/24 07:59:50;;;;;;;1.58;1.10;;;22.60;72.90;;;;;;6248600;22;20004;-73
2022/08/24 08:02:18;;;;;;;1.13;1.00;;;22.70;72.80;;;;;;6275305;22;20003;-73
2022/08/24 08:04:44;;;;;;;1.35;1.20;;;22.80;72.70;;;;;;6275557;22;19992;-74
2022/08/24 08:07:10;;;;;;;1.30;1.10;;;22.90;72.70;;;;;;6275371;22;20004;-74
2022/08/24 08:09:37;;;;;;;0.93;0.93;;;23.00;72.50;;;;;;6275327;22;20000;-74
2022/08/24 08:12:05;;;;;;;0.82;0.82;;;23.10;72.30;;;;;;6275587;22;20082;-74
2022/08/24 08:14:31;;;;;;;1.05;0.98;;;23.30;72.10;;;;;;6275025;22;20007;-74
2022/08/24 08:16:57;;;;;;;0.80;0.80;;;23.50;71.80;;;;;;6275627;22;20343;-74
2022/08/24 08:19:23;;;;;;;0.77;0.77;;;23.70;71.50;;;;;;6275776;22;20050;-74
2022/08/24 08:24:38;;;;;;;1.17;0.88;;;24.10;70.80;;;;;;6274956;22;20015;-74
2022/08/24 08:27:04;;;;;;;1.08;0.98;;;24.30;70.40;;;;;;6222848;22;20431;-74
2022/08/24 08:29:32;;;;;;;0.80;0.80;;;24.50;70.20;;;;;;6222655;22;20008;-74
2022/08/24 08:31:59;;;;;;;1.10;1.00;;;24.70;69.90;;;;;;6275205;22;20000;-74
2022/08/24 08:34:25;;;;;;;1.17;1.08;;;24.90;69.80;;;;;;6275071;22;20053;-74
2022/08/24 08:36:52;;;;;;;1.52;1.00;;;25.10;69.30;;;;;;6274899;22;20367;-74
2022/08/24 08:39:20;;;;;;;1.02;0.88;;;25.30;69.00;;;;;;6275089;22;20086;-74
2022/08/24 08:42:21;;;;;;;1.00;0.90;;;25.40;68.80;;;;;;6275293;22;20004;-74
2022/08/24 08:45:06;;;;;;;;;;;25.50;68.60;;;;;;6275246;22;19996;-74
2022/08/24 08:48:03;;;;;;;0.82;0.82;;;25.70;68.60;;;;;;6253011;22;20227;-74
2022/08/24 08:50:43;;;;;;;1.27;0.90;;;25.90;68.40;;;;;;6274801;22;20019;-74
2022/08/24 08:53:31;;;;;;;0.80;0.80;;;26.00;68.10;;;;;;6274846;22;20057;-74
2022/08/24 08:56:24;;;;;;;1.35;0.93;;;26.20;67.70;;;;;;6273899;22;20007;-73
2022/08/24 08:59:16;;;;;;;0.70;0.70;;;26.40;67.40;;;;;;6275228;22;20014;-74
2022/08/24 09:02:02;;;;;;;0.88;0.82;;;26.50;67.80;;;;;;6274937;22;19996;-74
2022/08/24 09:04:49;;;;;;;0.90;0.90;;;26.60;67.00;;;;;;6274742;22;20022;-74
2022/08/24 09:07:33;;;;;;;1.30;0.70;;;26.80;66.80;;;;;;6249642;22;20008;-74
2022/08/24 09:10:18;;;;;;;1.00;0.88;;;26.90;67.50;;;;;;6274531;22;20004;-73
2022/08/24 09:12:58;;;;;;;0.80;0.80;;;27.00;66.50;;;;;;6222984;22;20462;-74
2022/08/24 09:15:43;;;;;;;;;;;27.10;66.30;;;;;;6275039;22;20012;-74
2022/08/24 09:18:43;;;;;;;0.70;0.70;;;27.20;66.30;;;;;;6271952;22;19930;-74
2022/08/24 09:21:33;;;;;;;0.60;0.60;;;27.30;66.20;;;;;;6247140;22;20458;-74
2022/08/24 09:24:24;;;;;;;0.70;0.70;;;27.30;66.00;;;;;;6274745;22;20090;-73
2022/08/24 09:27:24;;;;;;;0.73;0.60;;;27.40;65.90;;;;;;6247253;22;20004;-74
2022/08/24 09:30:08;;;;;;;0.60;0.60;;;27.50;65.70;;;;;;6229622;22;20079;-75
2022/08/24 09:32:54;;;;;;;0.63;0.63;;;27.50;65.60;;;;;;6275147;22;20007;-73
2022/08/24 09:35:38;;;;;;;0.60;0.60;;;27.60;65.50;;;;;;6274374;22;20000;-74
2022/08/24 09:38:16;;;;;;;0.50;0.50;;;27.70;65.30;;;;;;6274587;22;20011;-74
2022/08/24 09:41:04;;;;;;;0.63;0.60;;;27.80;65.20;;;;;;6274429;22;20413;-74
2022/08/24 09:43:57;;;;;;;0.60;0.60;;;27.90;65.10;;;;;;6247096;22;20004;-74
2022/08/24 09:46:56;;;;;;;0.60;0.60;;;28.00;65.00;;;;;;6273851;22;20007;-74
2022/08/24 09:49:59;;;;;;;0.60;0.60;;;28.00;64.60;;;;;;6273943;22;20045;-74
2022/08/24 09:52:55;;;;;;;0.50;0.50;;;28.20;64.40;;;;;;6246752;22;20081;-73
2022/08/24 09:55:42;;;;;;;0.43;0.43;;;28.40;64.10;;;;;;6274206;22;20057;-74
2022/08/24 09:58:36;;;;;;;0.63;0.63;;;28.40;63.90;;;;;;6273904;22;20443;-74
2022/08/24 10:01:13;;;;;;;0.50;0.50;;;28.40;63.80;;;;;;6243546;22;20007;-73
2022/08/24 10:04:18;;;;;;;0.70;0.47;;;28.50;63.70;;;;;;6274572;22;20007;-74
2022/08/24 10:07:11;;;;;;;0.60;0.60;;;28.50;63.70;;;;;;6251249;22;20031;-73
2022/08/24 10:10:03;;;;;;;0.50;0.50;;;28.50;63.60;;;;;;6253032;22;20371;-74
2022/08/24 10:12:58;;;;;;;0.52;0.52;;;28.60;63.60;;;;;;6275565;22;20004;-73
2022/08/24 10:15:46;;;;;;;0.55;0.55;;;28.70;63.50;;;;;;6255558;22;20000;-74
2022/08/24 10:18:35;;;;;;;0.60;0.60;;;28.60;63.20;;;;;;6248410;22;20383;-74
2022/08/24 10:21:22;;;;;;;0.43;0.43;;;28.60;63.10;;;;;;6275478;22;20003;-74
2022/08/24 10:24:16;;;;;;;0.65;0.55;;;28.70;62.90;;;;;;6275649;22;19999;-74
2022/08/24 10:27:17;;;;;;;0.50;0.50;;;28.70;62.60;;;;;;6274853;22;19995;-74
2022/08/24 10:30:08;;;;;;;0.60;0.60;;;28.70;62.40;;;;;;6275480;22;20027;-74
2022/08/24 10:32:47;;;;;;;0.52;0.52;;;28.70;62.50;;;;;;6276269;22;20000;-74
2022/08/24 10:35:19;;;;;;;1.88;0.70;;;28.80;62.30;;;;;;6275651;22;20093;-74
2022/08/24 10:41:20;;;;;;;0.50;0.50;;;28.90;61.50;;;;;;6275618;22;20003;-74
2022/08/24 10:44:05;;;;;;;0.60;0.60;;;29.00;61.40;;;;;;6252537;22;20000;-75
2022/08/24 10:46:55;;;;;;;0.60;0.60;;;29.10;61.20;;;;;;6276005;22;20004;-74
2022/08/24 10:49:42;;;;;;;0.70;0.70;;;29.00;60.90;;;;;;6252940;22;20003;-74
2022/08/24 10:52:39;;;;;;;0.82;0.50;;;29.20;60.80;;;;;;6248299;22;19995;-74
2022/08/24 10:55:18;;;;;;;0.50;0.50;;;29.10;60.60;;;;;;6260491;22;20026;-73
2022/08/24 10:58:20;;;;;;;1.25;0.60;;;29.20;60.60;;;;;;6275090;22;20008;-74
2022/08/24 11:00:46;;;;;;;0.47;0.47;;;29.20;60.50;;;;;;6275470;22;20006;-74
2022/08/24 11:03:17;;;;;;;0.60;0.60;;;29.20;60.50;;;;;;6275919;22;20082;-74
2022/08/24 11:05:48;;;;;;;0.50;0.50;;;29.10;60.40;;;;;;6275354;22;20000;-74
2022/08/24 11:08:23;;;;;;;0.60;0.60;;;29.00;60.50;;;;;;6275185;22;20049;-74
2022/08/24 11:11:05;;;;;;;0.60;0.60;;;28.90;60.50;;;;;;6248044;22;20014;-74
2022/08/24 11:13:32;;;;;;;0.40;0.40;;;29.00;60.40;;;;;;6275112;22;20007;-74
2022/08/24 11:16:00;;;;;;;0.60;0.60;;;29.00;60.10;;;;;;6248255;22;20068;-74
2022/08/24 11:18:46;;;;;;;0.60;0.60;;;29.20;60.00;;;;;;6275382;22;20016;-74
2022/08/24 11:21:31;;;;;;;0.65;0.60;;;29.30;59.70;;;;;;6275271;22;19996;-74
2022/08/24 11:24:04;;;;;;;0.50;0.50;;;29.40;59.50;;;;;;6274999;22;20079;-74
2022/08/24 11:26:43;;;;;;;0.65;0.65;;;29.50;59.20;;;;;;6222518;22;20083;-74
2022/08/24 11:29:09;;;;;;;0.60;0.60;;;29.60;59.00;;;;;;6275128;22;20000;-73
2022/08/24 11:31:40;;;;;;;0.40;0.40;;;29.70;58.60;;;;;;6275744;22;20030;-74
2022/08/24 11:34:09;;;;;;;0.65;0.50;;;29.60;58.50;;;;;;6275514;22;20489;-74
2022/08/24 11:36:38;;;;;;;0.60;0.60;;;29.50;58.70;;;;;;6275299;22;20000;-74
2022/08/24 11:39:18;;;;;;;0.52;0.52;;;29.40;58.90;;;;;;6247625;22;20012;-74
2022/08/24 11:42:08;;;;;;;0.60;0.50;;;29.40;59.10;;;;;;6250031;22;20000;-74
2022/08/24 11:44:42;;;;;;;0.40;0.40;;;29.40;59.00;;;;;;6275075;22;20439;-74
2022/08/24 11:47:32;;;;;;;0.50;0.50;;;29.50;58.80;;;;;;6275551;22;20047;-74
2022/08/24 11:50:24;;;;;;;0.50;0.50;;;29.50;58.70;;;;;;6275411;22;19996;-74
2022/08/24 11:53:06;;;;;;;0.60;0.60;;;29.50;58.70;;;;;;6274666;22;20450;-74
2022/08/24 11:55:41;;;;;;;0.57;0.57;;;29.50;58.60;;;;;;6247881;22;20018;-74
2022/08/24 11:58:18;;;;;;;0.60;0.60;;;29.50;58.60;;;;;;6275867;22;20031;-74
2022/08/24 12:00:53;;;;;;;1.42;0.88;;;29.50;58.60;;;;;;6240452;22;20000;-74
2022/08/24 12:03:56;;;;;;;0.70;0.70;;;29.50;58.50;;;;;;6275489;22;20019;-74
2022/08/24 12:06:46;;;;;;;0.70;0.70;;;29.40;58.50;;;;;;6271701;22;19999;-74
2022/08/24 12:09:26;;;;;;;0.60;0.60;;;29.50;58.60;;;;;;6253021;22;20378;-73
2022/08/24 12:12:14;;;;;;;0.60;0.60;;;29.40;58.50;;;;;;6248545;22;20011;-74
2022/08/24 12:14:50;;;;;;;0.90;0.65;;;29.40;58.30;;;;;;6275485;22;20004;-74
2022/08/24 12:17:27;;;;;;;0.70;0.50;;;29.50;58.40;;;;;;6275049;22;20004;-74
2022/08/24 12:19:59;;;;;;;0.60;0.60;;;29.50;58.30;;;;;;6275034;22;20018;-74
2022/08/24 12:22:27;;;;;;;0.70;0.70;;;29.50;58.20;;;;;;6275545;22;20072;-74
2022/08/24 12:24:56;;;;;;;0.68;0.60;;;29.50;58.10;;;;;;6247908;22;19996;-74
2022/08/24 12:27:28;;;;;;;0.70;0.70;;;29.60;58.00;;;;;;6274873;22;20000;-74
2022/08/24 12:30:06;;;;;;;0.47;0.47;;;29.60;58.00;;;;;;6274787;22;20481;-74
2022/08/24 12:32:40;;;;;;;0.70;0.70;;;29.70;58.60;;;;;;6275347;22;20010;-73
2022/08/24 12:35:14;;;;;;;0.57;0.50;;;29.70;57.80;;;;;;6247852;22;20150;-74
2022/08/24 12:37:44;;;;;;;0.70;0.70;;;29.60;57.80;;;;;;6275063;22;20014;-74
2022/08/24 12:40:40;;;;;;;0.60;0.60;;;29.60;57.90;;;;;;6274624;22;20003;-73
2022/08/24 12:43:11;;;;;;;0.50;0.50;;;29.50;57.90;;;;;;6275135;22;20008;-74
2022/08/24 12:45:37;;;;;;;0.70;0.70;;;29.40;57.90;;;;;;6275590;22;20001;-74
2022/08/24 12:48:19;;;;;;;0.60;0.60;;;29.50;58.00;;;;;;6275436;22;20026;-74
2022/08/24 12:51:18;;;;;;;0.50;0.50;;;29.50;58.00;;;;;;6274832;22;20050;-74
2022/08/24 12:54:19;;;;;;;0.68;0.65;;;29.40;57.80;;;;;;6252203;22;20004;-74
2022/08/24 12:57:08;;;;;;;0.60;0.60;;;29.40;58.00;;;;;;6271414;22;20008;-74
2022/08/24 12:59:55;;;;;;;0.50;0.50;;;29.40;57.60;;;;;;6274716;22;20022;-74
2022/08/24 13:02:31;;;;;;;0.50;0.50;;;29.60;57.50;;;;;;6248301;22;20022;-74
2022/08/24 13:05:03;;;;;;;0.50;0.50;;;29.80;57.20;;;;;;6248531;22;20007;-74
2022/08/24 13:07:39;;;;;;;0.40;0.40;;;30.00;56.80;;;;;;6275451;22;20006;-74
2022/08/24 13:10:13;;;;;;;0.60;0.60;;;30.10;56.60;;;;;;6222029;22;20000;-74
2022/08/24 13:13:07;;;;;;;0.50;0.50;;;30.20;56.40;;;;;;6275077;22;20008;-74
2022/08/24 13:15:54;;;;;;;0.60;0.60;;;30.30;56.30;;;;;;6275365;22;20007;-74
2022/08/24 13:18:49;;;;;;;0.50;0.50;;;30.40;56.00;;;;;;6252787;22;20008;-74
2022/08/24 13:21:35;;;;;;;0.60;0.60;;;30.50;55.80;;;;;;6274519;22;20033;-74
2022/08/24 13:24:31;;;;;;;0.60;0.60;;;30.60;55.70;;;;;;6244461;22;20429;-74
2022/08/24 13:27:31;;;;;;;0.40;0.40;;;30.50;55.60;;;;;;6251756;22;20000;-74
2022/08/24 13:30:07;;;;;;;;;;;30.50;55.70;;;;;;6253037;22;20003;-74